Terminal Aerodrome Forecast
Issued by NWS

Current Version | Previous Version | Text Only | Print | Product List | Glossary Off
Versions: 1 2 3 4 5 6 7 8 9 10 11 12 13 14 15 16 17 18

000
FTUS41 KILN 221732
TAFLCK
TAF
KLCK 221732Z 2218/2318 07007KT P6SM BKN250
     FM222200 06008KT P6SM SCT250
     FM230600 08008KT P6SM BKN250
     FM231400 10012G20KT P6SM OVC200=

USA.gov is the U.S. government's official web portal to all federal, state and local government web resources and services.